createdAt,value
2022-12-31T00:00:08.591Z,2.80
2022-12-31T00:02:36.060Z,3.10
2022-12-31T00:05:03.502Z,3.20
2022-12-31T00:07:30.401Z,2.83
2022-12-31T00:09:56.919Z,2.77
2022-12-31T00:12:23.533Z,3.50
2022-12-31T00:14:50.417Z,3.17
2022-12-31T00:17:16.919Z,3.30
2022-12-31T00:19:43.699Z,3.30
2022-12-31T00:22:10.549Z,3.50
2022-12-31T00:24:37.049Z,3.30
2022-12-31T00:27:03.583Z,3.60
2022-12-31T00:29:30.511Z,4.13
2022-12-31T00:31:57.017Z,3.50
2022-12-31T00:34:24.033Z,3.87
2022-12-31T00:36:50.569Z,4.13
2022-12-31T00:39:17.058Z,3.67
2022-12-31T00:41:44.145Z,3.97
2022-12-31T00:44:11.760Z,3.90
2022-12-31T00:49:04.464Z,4.23
2022-12-31T00:51:31.276Z,4.50
2022-12-31T00:53:58.388Z,3.63
2022-12-31T00:56:28.149Z,3.43
2022-12-31T00:58:54.960Z,4.00
2022-12-31T01:01:27.034Z,3.43
2022-12-31T01:03:57.961Z,3.20
2022-12-31T01:06:24.660Z,3.17
2022-12-31T01:08:52.124Z,3.50
2022-12-31T01:11:19.715Z,3.20
2022-12-31T01:13:47.590Z,3.47
2022-12-31T01:16:15.951Z,3.20
2022-12-31T01:18:42.512Z,3.23
2022-12-31T01:21:11.120Z,2.80
2022-12-31T01:23:37.792Z,3.13
2022-12-31T01:26:07.250Z,3.23
2022-12-31T01:28:34.226Z,3.17
2022-12-31T01:31:07.257Z,3.83
2022-12-31T01:33:33.978Z,2.83
2022-12-31T01:36:09.790Z,2.90
2022-12-31T01:38:36.992Z,3.67
2022-12-31T01:41:04.503Z,3.50
2022-12-31T01:44:12.726Z,3.40
2022-12-31T01:46:56.295Z,3.10
2022-12-31T01:49:36.060Z,3.30
2022-12-31T01:52:30.610Z,3.33
2022-12-31T01:55:14.979Z,3.87
2022-12-31T01:57:44.136Z,3.73
2022-12-31T02:00:11.357Z,3.43
2022-12-31T02:02:37.940Z,4.00
2022-12-31T02:05:12.766Z,3.20
2022-12-31T02:07:39.617Z,3.40
2022-12-31T02:10:06.340Z,3.70
2022-12-31T02:12:32.906Z,3.47
2022-12-31T02:14:59.757Z,3.63
2022-12-31T02:17:38.344Z,3.70
2022-12-31T02:20:20.936Z,3.87
2022-12-31T02:23:06.338Z,4.00
2022-12-31T02:25:57.659Z,5.93
2022-12-31T02:28:46.112Z,3.73
2022-12-31T02:31:26.251Z,4.00
2022-12-31T02:34:10.699Z,3.50
2022-12-31T02:36:43.014Z,4.20
2022-12-31T02:39:12.449Z,4.67
2022-12-31T02:41:52.384Z,4.70
2022-12-31T02:44:29.337Z,4.40
2022-12-31T02:47:04.996Z,4.17
2022-12-31T02:50:01.055Z,5.43
2022-12-31T02:52:52.697Z,4.67
2022-12-31T02:55:32.782Z,4.50
2022-12-31T02:58:51.334Z,3.80
2022-12-31T03:01:44.501Z,2.60
2022-12-31T03:04:32.577Z,2.50
2022-12-31T03:07:07.791Z,2.60
2022-12-31T03:09:35.405Z,3.07
2022-12-31T03:12:22.750Z,2.73
2022-12-31T03:14:49.961Z,1.60
2022-12-31T03:17:16.952Z,1.30
2022-12-31T03:20:03.163Z,1.10
2022-12-31T03:22:30.092Z,0.83
2022-12-31T03:25:22.740Z,0.93
2022-12-31T03:27:50.113Z,1.00
2022-12-31T03:30:18.441Z,1.20
2022-12-31T03:32:46.833Z,1.63
2022-12-31T03:38:03.516Z,2.40
2022-12-31T03:40:31.257Z,2.67
2022-12-31T03:42:57.984Z,2.50
2022-12-31T03:45:24.519Z,2.97
2022-12-31T03:47:51.295Z,2.60
2022-12-31T03:50:18.722Z,2.53
2022-12-31T03:52:46.018Z,1.53
2022-12-31T03:55:13.259Z,1.50
2022-12-31T03:57:40.139Z,1.50
2022-12-31T04:00:10.218Z,1.50
2022-12-31T04:02:37.213Z,0.90
2022-12-31T04:05:04.683Z,0.80
2022-12-31T04:07:31.317Z,0.80
2022-12-31T04:09:58.502Z,0.70
2022-12-31T04:12:25.908Z,0.70
2022-12-31T04:14:52.695Z,0.60
2022-12-31T04:17:19.846Z,0.60
2022-12-31T04:19:46.696Z,0.70
2022-12-31T04:22:13.538Z,0.60
2022-12-31T04:24:41.581Z,0.60
2022-12-31T04:27:08.491Z,0.50
2022-12-31T04:29:35.804Z,0.60
2022-12-31T04:32:03.301Z,0.60
2022-12-31T04:34:29.961Z,0.50
2022-12-31T04:36:56.644Z,0.50
2022-12-31T04:39:24.444Z,0.70
2022-12-31T04:41:51.002Z,0.70
2022-12-31T04:44:18.153Z,0.70
2022-12-31T04:46:44.679Z,0.60
2022-12-31T04:49:12.201Z,0.60
2022-12-31T04:51:39.477Z,0.70
2022-12-31T04:54:06.842Z,0.63
2022-12-31T04:56:36.560Z,0.70
2022-12-31T04:59:05.179Z,0.80
2022-12-31T05:01:33.289Z,0.80
2022-12-31T05:04:00.183Z,0.87
2022-12-31T05:06:26.737Z,0.97
2022-12-31T05:08:53.348Z,0.80
2022-12-31T05:11:19.858Z,0.80
2022-12-31T05:13:46.767Z,0.80
2022-12-31T05:16:13.446Z,0.70
2022-12-31T05:18:40.466Z,0.73
2022-12-31T05:21:07.269Z,0.60
2022-12-31T05:23:34.938Z,0.80
2022-12-31T05:26:01.843Z,0.60
2022-12-31T05:28:28.859Z,0.60
2022-12-31T05:30:55.627Z,0.70
2022-12-31T05:33:23.083Z,0.70
2022-12-31T05:35:50.506Z,0.70
2022-12-31T05:38:18.585Z,0.60
2022-12-31T05:40:45.231Z,0.80
2022-12-31T05:43:12.016Z,0.80
2022-12-31T05:45:39.422Z,0.83
2022-12-31T05:48:06.472Z,0.70
2022-12-31T05:50:33.021Z,0.77
2022-12-31T05:53:04.272Z,0.80
2022-12-31T05:55:30.949Z,0.70
2022-12-31T05:57:57.760Z,0.83
2022-12-31T06:00:24.283Z,0.80
2022-12-31T06:02:50.851Z,0.60
2022-12-31T06:05:22.454Z,0.97
2022-12-31T06:07:52.362Z,0.80
2022-12-31T06:10:18.874Z,1.03
2022-12-31T06:12:45.647Z,0.87
2022-12-31T06:15:12.238Z,0.70
2022-12-31T06:17:38.815Z,0.97
2022-12-31T06:20:12.182Z,1.10
2022-12-31T06:22:40.447Z,0.90
2022-12-31T06:25:07.397Z,1.03
2022-12-31T06:27:34.596Z,0.80
2022-12-31T06:30:01.099Z,0.77
2022-12-31T06:32:28.589Z,0.70
2022-12-31T06:34:55.178Z,0.70
2022-12-31T06:37:21.749Z,0.70
2022-12-31T06:39:48.799Z,1.10
2022-12-31T06:42:15.321Z,1.60
2022-12-31T06:44:41.828Z,1.20
2022-12-31T06:47:08.324Z,1.27
2022-12-31T06:49:34.904Z,0.87
2022-12-31T06:52:01.768Z,0.87
2022-12-31T06:54:28.846Z,1.10
2022-12-31T06:56:55.660Z,1.30
2022-12-31T06:59:27.937Z,0.80
2022-12-31T07:02:05.416Z,0.83
2022-12-31T07:04:49.624Z,0.90
2022-12-31T07:07:34.288Z,0.90
2022-12-31T07:10:18.029Z,0.97
2022-12-31T07:13:01.193Z,0.90
2022-12-31T07:15:51.710Z,0.90
2022-12-31T07:18:30.356Z,1.00
2022-12-31T07:20:59.384Z,0.90
2022-12-31T07:23:26.109Z,1.10
2022-12-31T07:26:06.752Z,0.97
2022-12-31T07:28:59.699Z,1.00
2022-12-31T07:31:42.201Z,1.10
2022-12-31T07:34:25.223Z,1.00
2022-12-31T07:37:06.274Z,1.13
2022-12-31T07:39:45.363Z,1.13
2022-12-31T07:42:11.851Z,1.27
2022-12-31T07:45:01.022Z,1.73
2022-12-31T07:47:29.540Z,1.20
2022-12-31T07:49:56.770Z,1.30
2022-12-31T07:52:23.698Z,1.10
2022-12-31T07:54:50.486Z,1.30
2022-12-31T07:57:18.888Z,0.90
2022-12-31T08:00:03.846Z,1.13
2022-12-31T08:02:56.390Z,1.07
2022-12-31T08:05:52.336Z,0.80
2022-12-31T08:08:28.065Z,0.80
2022-12-31T08:11:16.231Z,1.00
2022-12-31T08:13:43.805Z,0.83
2022-12-31T08:16:13.400Z,0.90
2022-12-31T08:18:40.874Z,1.00
2022-12-31T08:21:22.488Z,1.03
2022-12-31T08:24:24.806Z,0.60
2022-12-31T08:27:09.712Z,0.80
2022-12-31T08:29:49.732Z,0.90
2022-12-31T08:32:31.025Z,0.70
2022-12-31T08:35:06.691Z,0.60
2022-12-31T08:37:51.053Z,0.60
2022-12-31T08:40:46.015Z,0.50
2022-12-31T08:43:32.946Z,0.50
2022-12-31T08:46:00.254Z,0.60
2022-12-31T08:48:40.814Z,1.20
2022-12-31T08:51:14.600Z,0.70
2022-12-31T08:53:41.339Z,0.60
2022-12-31T08:56:21.508Z,0.73
2022-12-31T08:59:04.260Z,0.70
2022-12-31T09:01:44.332Z,0.60
2022-12-31T09:04:27.414Z,0.70
2022-12-31T09:07:02.024Z,0.60
2022-12-31T09:09:40.282Z,1.10
2022-12-31T09:12:25.827Z,1.07
2022-12-31T09:15:13.199Z,0.80
2022-12-31T09:17:44.338Z,0.70
2022-12-31T09:20:42.927Z,0.60
2022-12-31T09:23:12.748Z,0.60
2022-12-31T09:26:08.107Z,0.67
2022-12-31T09:28:56.574Z,0.60
2022-12-31T09:31:49.823Z,0.60
2022-12-31T09:34:26.240Z,0.60
2022-12-31T09:37:02.731Z,0.50
2022-12-31T09:39:40.508Z,0.70
2022-12-31T09:42:49.068Z,0.50
2022-12-31T09:45:42.405Z,0.70
2022-12-31T09:48:27.717Z,0.70
2022-12-31T09:51:26.049Z,0.63
2022-12-31T09:54:15.593Z,0.60
2022-12-31T09:57:08.556Z,0.50
2022-12-31T09:59:46.315Z,0.70
2022-12-31T10:02:33.212Z,0.80
2022-12-31T10:05:18.787Z,0.70
2022-12-31T10:08:01.226Z,1.10
2022-12-31T10:10:39.959Z,0.80
2022-12-31T10:13:43.577Z,0.63
2022-12-31T10:16:12.881Z,0.60
2022-12-31T10:18:57.299Z,1.00
2022-12-31T10:21:45.155Z,0.60
2022-12-31T10:24:36.618Z,0.70
2022-12-31T10:27:09.061Z,0.70
2022-12-31T10:29:48.015Z,0.87
2022-12-31T10:32:29.400Z,0.80
2022-12-31T10:35:38.662Z,0.70
2022-12-31T10:38:13.908Z,0.80
2022-12-31T10:41:14.309Z,0.60
2022-12-31T10:44:24.297Z,0.70
2022-12-31T10:47:11.915Z,0.73
2022-12-31T10:49:47.303Z,0.60
2022-12-31T10:52:52.824Z,0.50
2022-12-31T10:56:03.987Z,0.70
2022-12-31T10:58:56.089Z,0.50
2022-12-31T11:01:35.383Z,0.70
2022-12-31T11:04:31.614Z,0.60
2022-12-31T11:07:29.538Z,0.50
2022-12-31T11:10:33.952Z,0.60
2022-12-31T11:13:21.911Z,0.50
2022-12-31T11:16:10.129Z,0.50
2022-12-31T11:18:52.808Z,0.50
2022-12-31T11:21:29.522Z,0.53
2022-12-31T11:24:33.726Z,0.50
2022-12-31T11:27:28.580Z,0.60
2022-12-31T11:30:10.952Z,0.63
2022-12-31T11:32:57.071Z,0.60
2022-12-31T11:35:48.220Z,0.80
2022-12-31T11:38:26.120Z,0.70
2022-12-31T11:41:18.345Z,0.60
2022-12-31T11:44:13.125Z,0.60
2022-12-31T11:47:12.242Z,0.50
2022-12-31T11:50:03.507Z,0.80
2022-12-31T11:52:49.843Z,0.60
2022-12-31T11:55:27.055Z,0.67
2022-12-31T11:57:54.116Z,0.50
2022-12-31T12:00:23.594Z,0.50
2022-12-31T12:03:05.550Z,0.70
2022-12-31T12:05:35.057Z,0.83
2022-12-31T12:08:02.096Z,0.60
2022-12-31T12:10:36.585Z,0.77
2022-12-31T12:13:26.615Z,0.63
2022-12-31T12:15:58.469Z,0.60
2022-12-31T12:18:29.522Z,0.70
2022-12-31T12:21:12.030Z,0.77
2022-12-31T12:23:39.165Z,0.50
2022-12-31T12:26:07.076Z,0.70
2022-12-31T12:28:46.581Z,0.60
2022-12-31T12:31:20.774Z,0.70
2022-12-31T12:33:49.039Z,0.83
2022-12-31T12:36:18.674Z,0.67
2022-12-31T12:38:45.560Z,0.60
2022-12-31T12:41:23.418Z,0.70
2022-12-31T12:43:50.342Z,0.70
2022-12-31T12:46:48.283Z,0.70
2022-12-31T12:49:25.660Z,0.70
2022-12-31T12:52:02.972Z,0.70
2022-12-31T12:54:37.971Z,0.87
2022-12-31T12:57:20.587Z,0.90
2022-12-31T13:00:01.669Z,0.70
2022-12-31T13:02:55.536Z,0.67
2022-12-31T13:05:52.322Z,0.90
2022-12-31T13:08:34.831Z,1.87
2022-12-31T13:11:18.171Z,0.70
2022-12-31T13:14:10.748Z,0.87
2022-12-31T13:16:51.453Z,0.90
2022-12-31T13:19:37.983Z,1.00
2022-12-31T13:22:28.538Z,1.10
2022-12-31T13:25:02.828Z,1.20
2022-12-31T13:27:38.272Z,1.20
2022-12-31T13:30:19.433Z,1.53
2022-12-31T13:33:20.556Z,1.47
2022-12-31T13:35:54.887Z,1.03
2022-12-31T13:38:27.894Z,1.63
2022-12-31T13:40:57.113Z,1.07
2022-12-31T13:43:37.258Z,1.40
2022-12-31T13:46:26.450Z,1.63
2022-12-31T13:49:01.048Z,1.20
2022-12-31T13:52:00.337Z,1.37
2022-12-31T13:54:42.436Z,1.30
2022-12-31T13:57:20.228Z,1.30
2022-12-31T13:59:54.777Z,1.80
2022-12-31T14:02:27.368Z,1.60
2022-12-31T14:05:00.171Z,1.63
2022-12-31T14:07:40.376Z,1.27
2022-12-31T14:10:17.695Z,1.33
2022-12-31T14:12:56.068Z,1.70
2022-12-31T14:15:26.591Z,2.10
2022-12-31T14:18:10.896Z,2.00
2022-12-31T14:21:01.905Z,1.50
2022-12-31T14:23:42.997Z,1.50
2022-12-31T14:26:22.706Z,1.40
2022-12-31T14:29:08.680Z,1.20
2022-12-31T14:32:01.398Z,1.53
2022-12-31T14:34:49.841Z,1.30
2022-12-31T14:37:41.234Z,1.60
2022-12-31T14:40:32.556Z,1.73
2022-12-31T14:43:37.218Z,1.17
2022-12-31T14:46:10.517Z,1.10
2022-12-31T14:48:43.586Z,1.23
2022-12-31T14:51:13.051Z,2.10
2022-12-31T14:53:40.031Z,1.10
2022-12-31T14:56:26.922Z,2.90
2022-12-31T14:58:59.399Z,1.33
2022-12-31T15:01:26.387Z,1.17
2022-12-31T15:03:58.060Z,2.13
2022-12-31T15:06:24.651Z,1.40
2022-12-31T15:09:12.274Z,1.30
2022-12-31T15:12:14.903Z,1.20
2022-12-31T15:14:50.151Z,1.33
2022-12-31T15:17:38.144Z,1.70
2022-12-31T15:20:23.221Z,1.10
2022-12-31T15:22:51.991Z,1.90
2022-12-31T15:25:32.694Z,1.50
2022-12-31T15:28:06.933Z,1.30
2022-12-31T15:30:48.500Z,1.10
2022-12-31T15:33:30.811Z,2.00
2022-12-31T15:36:08.765Z,1.57
2022-12-31T15:38:37.997Z,1.53
2022-12-31T15:41:15.757Z,1.10
2022-12-31T15:43:54.772Z,1.33
2022-12-31T15:46:29.146Z,1.10
2022-12-31T15:49:05.793Z,1.20
2022-12-31T15:52:03.390Z,1.10
2022-12-31T15:54:40.923Z,1.67
2022-12-31T15:57:16.102Z,1.80
2022-12-31T15:59:43.718Z,1.40
2022-12-31T16:02:23.745Z,1.43
2022-12-31T16:04:51.838Z,1.07
2022-12-31T16:07:18.831Z,1.40
2022-12-31T16:09:55.084Z,1.37
2022-12-31T16:12:32.687Z,1.30
2022-12-31T16:15:01.745Z,1.23
2022-12-31T16:17:36.321Z,1.47
2022-12-31T16:20:23.577Z,1.10
2022-12-31T16:22:57.412Z,1.57
2022-12-31T16:25:33.401Z,1.20
2022-12-31T16:28:02.759Z,1.90
2022-12-31T16:30:32.423Z,1.63
2022-12-31T16:33:01.227Z,2.67
2022-12-31T16:35:36.216Z,1.77
2022-12-31T16:38:19.452Z,1.23
2022-12-31T16:41:01.519Z,1.73
2022-12-31T16:43:31.081Z,1.50
2022-12-31T16:46:07.228Z,1.40
2022-12-31T16:48:34.012Z,3.60
2022-12-31T16:51:01.208Z,1.53
2022-12-31T16:53:29.829Z,1.40
2022-12-31T16:56:01.849Z,1.70
2022-12-31T16:58:37.378Z,2.10
2022-12-31T17:01:13.146Z,1.40
2022-12-31T17:03:44.140Z,1.63
2022-12-31T17:06:18.781Z,1.47
2022-12-31T17:08:48.408Z,1.23
2022-12-31T17:11:34.709Z,1.53
2022-12-31T17:14:07.924Z,1.73
2022-12-31T17:16:37.366Z,1.60
2022-12-31T17:19:04.238Z,1.40
2022-12-31T17:21:32.107Z,1.40
2022-12-31T17:24:05.947Z,1.43
2022-12-31T17:26:36.019Z,1.80
2022-12-31T17:29:05.750Z,1.90
2022-12-31T17:31:37.791Z,1.47
2022-12-31T17:34:06.073Z,1.57
2022-12-31T17:36:32.739Z,1.60
2022-12-31T17:39:20.114Z,1.40
2022-12-31T17:41:49.367Z,1.60
2022-12-31T17:44:21.193Z,2.13
2022-12-31T17:46:49.862Z,2.20
2022-12-31T17:49:16.516Z,2.20
2022-12-31T17:51:47.509Z,1.70
2022-12-31T17:54:18.661Z,1.80
2022-12-31T17:56:45.559Z,2.20
2022-12-31T17:59:17.452Z,1.70
2022-12-31T18:01:44.365Z,1.50
2022-12-31T18:04:13.101Z,1.70
2022-12-31T18:06:39.974Z,1.33
2022-12-31T18:09:06.776Z,2.63
2022-12-31T18:11:36.126Z,1.90
2022-12-31T18:14:03.584Z,1.90
2022-12-31T18:16:30.316Z,1.67
2022-12-31T18:18:59.507Z,1.90
2022-12-31T18:21:32.536Z,1.43
2022-12-31T18:26:26.474Z,1.77
2022-12-31T18:28:53.369Z,1.37
2022-12-31T18:31:23.048Z,1.70
2022-12-31T18:33:51.365Z,1.53
2022-12-31T18:36:20.035Z,1.53
2022-12-31T18:38:47.260Z,2.03
2022-12-31T18:41:17.930Z,2.43
2022-12-31T18:43:45.004Z,2.57
2022-12-31T18:46:18.020Z,3.00
2022-12-31T18:48:45.413Z,1.90
2022-12-31T18:51:19.842Z,3.23
2022-12-31T18:53:47.304Z,2.20
2022-12-31T18:56:16.035Z,1.60
2022-12-31T18:58:43.221Z,2.17
2022-12-31T19:01:25.259Z,1.60
2022-12-31T19:03:52.312Z,2.30
2022-12-31T19:06:18.845Z,1.70
2022-12-31T19:08:45.363Z,1.90
2022-12-31T19:11:14.346Z,1.70
2022-12-31T19:13:41.354Z,1.93
2022-12-31T19:16:09.631Z,1.40
2022-12-31T19:18:36.245Z,1.63
2022-12-31T19:21:03.701Z,1.93
2022-12-31T19:23:30.226Z,2.70
2022-12-31T19:25:56.744Z,1.83
2022-12-31T19:28:25.381Z,1.50
2022-12-31T19:30:52.721Z,1.90
2022-12-31T19:33:20.014Z,1.33
2022-12-31T19:35:46.816Z,1.60
2022-12-31T19:38:25.090Z,1.40
2022-12-31T19:40:53.322Z,1.63
2022-12-31T19:43:22.185Z,1.80
2022-12-31T19:45:50.283Z,1.67
2022-12-31T19:48:19.532Z,3.23
2022-12-31T19:50:49.289Z,1.50
2022-12-31T19:53:18.467Z,1.60
2022-12-31T19:55:45.111Z,1.60
2022-12-31T19:58:20.530Z,1.70
2022-12-31T20:00:55.669Z,1.50
2022-12-31T20:03:24.846Z,1.70
2022-12-31T20:05:51.520Z,1.37
2022-12-31T20:08:20.585Z,1.40
2022-12-31T20:10:47.192Z,1.37
2022-12-31T20:13:13.696Z,1.57
2022-12-31T20:15:47.437Z,1.87
2022-12-31T20:18:14.249Z,1.10
2022-12-31T20:20:49.209Z,1.40
2022-12-31T20:23:18.689Z,1.40
2022-12-31T20:25:56.514Z,1.70
2022-12-31T20:28:23.997Z,2.10
2022-12-31T20:30:51.640Z,1.60
2022-12-31T20:33:19.357Z,2.47
2022-12-31T20:35:46.454Z,1.80
2022-12-31T20:38:12.971Z,1.57
2022-12-31T20:40:46.181Z,2.00
2022-12-31T20:43:14.555Z,1.40
2022-12-31T20:45:41.674Z,1.47
2022-12-31T20:48:08.402Z,1.70
2022-12-31T20:50:35.182Z,1.93
2022-12-31T20:53:02.085Z,1.57
2022-12-31T20:55:30.657Z,1.50
2022-12-31T20:57:57.184Z,1.97
2022-12-31T21:00:23.881Z,2.37
2022-12-31T21:02:58.981Z,1.80
2022-12-31T21:05:30.929Z,1.50
2022-12-31T21:07:57.542Z,2.43
2022-12-31T21:10:24.098Z,1.70
2022-12-31T21:12:53.367Z,1.70
2022-12-31T21:15:21.488Z,2.40
2022-12-31T21:17:48.045Z,2.00
2022-12-31T21:20:14.544Z,1.43
2022-12-31T21:22:41.098Z,1.87
2022-12-31T21:25:08.147Z,1.53
2022-12-31T21:27:35.434Z,1.90
2022-12-31T21:30:18.136Z,1.70
2022-12-31T21:32:45.677Z,1.80
2022-12-31T21:35:41.582Z,1.57
2022-12-31T21:38:02.577Z,1.93
2022-12-31T21:40:29.900Z,2.03
2022-12-31T21:42:56.624Z,1.50
2022-12-31T21:45:23.627Z,1.40
2022-12-31T21:48:08.877Z,1.93
2022-12-31T21:50:35.419Z,1.87
2022-12-31T21:53:01.956Z,2.03
2022-12-31T21:55:47.746Z,1.93
2022-12-31T21:58:25.711Z,2.90
2022-12-31T22:01:12.359Z,2.37
2022-12-31T22:03:39.113Z,1.97
2022-12-31T22:06:13.763Z,1.90
2022-12-31T22:08:41.901Z,1.83
2022-12-31T22:11:10.155Z,2.30
2022-12-31T22:13:37.397Z,2.10
2022-12-31T22:16:06.080Z,2.90
2022-12-31T22:18:35.406Z,1.97
2022-12-31T22:21:18.913Z,2.17
2022-12-31T22:23:52.202Z,1.77
2022-12-31T22:26:22.090Z,1.73
2022-12-31T22:28:48.823Z,2.30
2022-12-31T22:31:18.867Z,2.27
2022-12-31T22:33:45.754Z,2.47
2022-12-31T22:36:14.784Z,3.13
2022-12-31T22:38:41.700Z,2.90
2022-12-31T22:41:14.455Z,3.00
2022-12-31T22:43:45.415Z,3.27
2022-12-31T22:46:24.463Z,2.10
2022-12-31T22:48:52.946Z,2.77
2022-12-31T22:51:20.495Z,2.10
2022-12-31T22:53:47.101Z,2.60
2022-12-31T22:56:17.629Z,3.43
2022-12-31T22:58:44.638Z,6.30
2022-12-31T23:01:23.762Z,13.40
2022-12-31T23:03:52.274Z,11.20
2022-12-31T23:06:20.803Z,5.27
2022-12-31T23:09:06.132Z,14.40
2022-12-31T23:11:35.060Z,5.33
2022-12-31T23:14:20.743Z,3.70
2022-12-31T23:17:30.188Z,4.63
2022-12-31T23:20:11.752Z,3.83
2022-12-31T23:22:56.953Z,4.93
2022-12-31T23:25:23.489Z,3.50
2022-12-31T23:27:49.993Z,3.03
2022-12-31T23:30:16.657Z,3.20
2022-12-31T23:32:43.150Z,3.00
2022-12-31T23:35:10.181Z,3.27
2022-12-31T23:37:36.925Z,2.93
2022-12-31T23:40:03.797Z,3.03
2022-12-31T23:42:30.361Z,2.60
2022-12-31T23:44:56.892Z,3.70
2022-12-31T23:47:23.397Z,3.43
2022-12-31T23:49:50.031Z,4.60
2022-12-31T23:52:16.567Z,4.53
2022-12-31T23:54:43.110Z,4.97
2022-12-31T23:57:09.977Z,5.87
2022-12-31T23:59:36.865Z,4.90
